Orbital elements of FENGYUN 1C DEB
| Launched | 9 May 1999 |
| Flight ended | – |
| Launch site | Taiyuan Space Center, PRC |
| Owner | People's Republic of China |
| NORAD ID | 33658 |
| Date fetched |
Epoch osculation |
Inc. [°] |
Ecc. | RA asc node [hr] |
Arg Peri. [°] |
Mean anom [°] |
Mean motion [rev/day] |
Abs. mag |
| Date fetched |
Epoch osculation |
Inc. [°] |
Ecc. | RA asc node [hr] |
Arg Peri. [°] |
Mean anom [°] |
Mean motion [rev/day] |
Abs. mag |
| 2026 May 06 17:57 | 2026 May 04 04:02:03 | 99.5719 | 0.02831 | 18.6622 | 176.9520 | 183.3431 | 13.63102 | – |
| 2026 May 05 17:57 | 2026 May 04 04:02:03 | 99.5719 | 0.02831 | 18.6622 | 176.9520 | 183.3431 | 13.63102 | – |
| 2026 May 04 17:57 | 2026 Apr 29 04:14:24 | 99.5703 | 0.02828 | 18.3348 | 189.5714 | 183.3431 | 13.63102 | – |
| 2026 May 03 17:57 | 2026 Apr 29 04:14:24 | 99.5703 | 0.02828 | 18.3348 | 189.5714 | 183.3431 | 13.63102 | – |
| 2026 May 02 17:57 | 2026 Apr 29 04:14:24 | 99.5703 | 0.02828 | 18.3348 | 189.5714 | 183.3431 | 13.63102 | – |
| 2026 May 01 17:56 | 2026 Apr 29 04:14:24 | 99.5703 | 0.02828 | 18.3348 | 189.5714 | 183.3431 | 13.63102 | – |
| 2026 Apr 30 17:56 | 2026 Apr 29 04:14:24 | 99.5703 | 0.02828 | 18.3348 | 189.5714 | 183.3431 | 13.63102 | – |
| 2026 Apr 29 17:57 | 2026 Apr 24 04:26:35 | 99.5700 | 0.02824 | 18.0073 | 202.2092 | 183.3431 | 13.63102 | – |
| 2026 Apr 28 17:56 | 2026 Apr 24 04:26:35 | 99.5700 | 0.02824 | 18.0073 | 202.2092 | 183.3431 | 13.63102 | – |
| 2026 Apr 27 17:58 | 2026 Apr 24 04:26:35 | 99.5700 | 0.02824 | 18.0073 | 202.2092 | 183.3431 | 13.63102 | – |
| 2026 Apr 26 17:58 | 2026 Apr 24 04:26:35 | 99.5700 | 0.02824 | 18.0073 | 202.2092 | 183.3431 | 13.63102 | – |
| 2026 Apr 25 17:58 | 2026 Apr 24 04:26:35 | 99.5700 | 0.02824 | 18.0073 | 202.2092 | 183.3431 | 13.63102 | – |
| 2026 Apr 24 17:59 | 2026 Apr 24 04:26:35 | 99.5700 | 0.02824 | 18.0073 | 202.2092 | 183.3431 | 13.63102 | – |
| 2026 Apr 23 17:57 | 2026 Apr 18 03:58:46 | 99.5678 | 0.02818 | 17.6125 | 217.4641 | 183.3431 | 13.63102 | – |
| 2026 Apr 22 17:57 | 2026 Apr 18 03:58:46 | 99.5678 | 0.02818 | 17.6125 | 217.4641 | 183.3431 | 13.63102 | – |
| 2026 Apr 21 17:57 | 2026 Apr 18 03:58:46 | 99.5678 | 0.02818 | 17.6125 | 217.4641 | 183.3431 | 13.63102 | – |
| 2026 Apr 20 17:57 | 2026 Apr 18 03:58:46 | 99.5678 | 0.02818 | 17.6125 | 217.4641 | 183.3431 | 13.63102 | – |
| 2026 Apr 19 17:58 | 2026 Apr 18 03:58:46 | 99.5678 | 0.02818 | 17.6125 | 217.4641 | 183.3431 | 13.63102 | – |
| 2026 Apr 18 17:56 | 2026 Apr 12 15:50:47 | 99.5666 | 0.02811 | 17.2515 | 231.4508 | 183.3431 | 13.63102 | – |
| 2026 Apr 16 17:57 | 2026 Apr 12 15:50:47 | 99.5666 | 0.02811 | 17.2515 | 231.4508 | 183.3431 | 13.63102 | – |
| 2026 Apr 14 17:57 | 2026 Apr 12 15:50:47 | 99.5666 | 0.02811 | 17.2515 | 231.4508 | 183.3431 | 13.63102 | – |
| 2026 Apr 13 17:57 | 2026 Apr 12 15:50:47 | 99.5666 | 0.02811 | 17.2515 | 231.4508 | 183.3431 | 13.63102 | – |
| 2026 Apr 12 17:57 | 2026 Apr 02 03:54:29 | 99.5655 | 0.02799 | 16.5632 | 258.1898 | 183.3431 | 13.63102 | – |
| 2026 Apr 11 17:57 | 2026 Apr 02 03:54:29 | 99.5655 | 0.02799 | 16.5632 | 258.1898 | 183.3431 | 13.63102 | – |
| 2026 Apr 10 17:58 | 2026 Apr 02 03:54:29 | 99.5655 | 0.02799 | 16.5632 | 258.1898 | 183.3431 | 13.63102 | – |
| 2026 Apr 09 18:01 | 2026 Apr 02 03:54:29 | 99.5655 | 0.02799 | 16.5632 | 258.1898 | 183.3431 | 13.63102 | – |